SSJ248 UNSS-UNTT
Flight info
| Callsign | SSJ248 |
|---|---|
| Flight time | 2h 24m |
| Altitude | 19000 |
| Route | TEBTO1G TEBTO A307 POGUT POGUT1K |
| Aircraft | AT75/M-SDFGIRY/S |
Departure
| Time | 2026-05-06 11:49 |
|---|---|
| Airport | Strezhevoy Airport (UNSS) |
Arrival
| Time | 2026-05-06 14:14 |
|---|---|
| Airport | Tomsk Kamov Airport (UNTT) |
| Time | Latitude | Longitude | Altitude | Speed | Heading |
|---|---|---|---|---|---|
| 2026-05-06 11:41 | 60.71726 | 77.65073 | 172 ft | 0 kts | 31° |
| 2026-05-06 11:47 | 60.71731 | 77.65079 | 172 ft | 3 kts | 34° |
| 2026-05-06 11:47 | 60.71757 | 77.65125 | 171 ft | 7 kts | 50° |
| 2026-05-06 11:47 | 60.71772 | 77.65186 | 171 ft | 8 kts | 66° |
| 2026-05-06 11:48 | 60.71795 | 77.65352 | 172 ft | 10 kts | 74° |
| 2026-05-06 11:48 | 60.71804 | 77.65444 | 172 ft | 10 kts | 90° |
| 2026-05-06 11:48 | 60.71770 | 77.65531 | 173 ft | 3 kts | 162° |
| 2026-05-06 11:48 | 60.71711 | 77.65566 | 173 ft | 33 kts | 164° |
| 2026-05-06 11:49 | 60.71462 | 77.65717 | 171 ft | 76 kts | 163° |
| 2026-05-06 11:49 | 60.70800 | 77.66118 | 173 ft | 121 kts | 163° |
| 2026-05-06 11:49 | 60.69946 | 77.66710 | 471 ft | 129 kts | 162° |
| 2026-05-06 11:49 | 60.69104 | 77.67289 | 869 ft | 131 kts | 164° |
| 2026-05-06 11:50 | 60.68139 | 77.67876 | 882 ft | 157 kts | 165° |
| 2026-05-06 11:50 | 60.67028 | 77.68532 | 977 ft | 172 kts | 166° |
| 2026-05-06 11:50 | 60.65869 | 77.69186 | 1278 ft | 173 kts | 166° |
| 2026-05-06 11:50 | 60.64754 | 77.70031 | 1568 ft | 176 kts | 142° |
| 2026-05-06 11:51 | 60.64059 | 77.72076 | 1850 ft | 178 kts | 118° |
| 2026-05-06 11:51 | 60.63474 | 77.74330 | 2245 ft | 180 kts | 121° |
| 2026-05-06 11:51 | 60.62869 | 77.76556 | 2664 ft | 182 kts | 122° |
| 2026-05-06 11:51 | 60.62227 | 77.78793 | 3059 ft | 183 kts | 123° |
| 2026-05-06 11:52 | 60.61557 | 77.80989 | 3438 ft | 184 kts | 126° |
| 2026-05-06 11:52 | 60.60853 | 77.83177 | 3826 ft | 185 kts | 127° |
| 2026-05-06 11:52 | 60.60124 | 77.85362 | 4118 ft | 187 kts | 128° |
| 2026-05-06 11:52 | 60.59368 | 77.87537 | 4274 ft | 188 kts | 128° |
| 2026-05-06 11:53 | 60.58605 | 77.89703 | 4569 ft | 188 kts | 128° |
| 2026-05-06 11:53 | 60.57840 | 77.91883 | 4852 ft | 189 kts | 128° |
| 2026-05-06 11:53 | 60.57081 | 77.94047 | 5121 ft | 191 kts | 128° |
| 2026-05-06 11:53 | 60.56303 | 77.96255 | 5413 ft | 192 kts | 128° |
| 2026-05-06 11:54 | 60.55527 | 77.98456 | 5667 ft | 192 kts | 128° |
| 2026-05-06 11:54 | 60.54745 | 78.00682 | 5948 ft | 193 kts | 128° |
| 2026-05-06 11:54 | 60.53974 | 78.02899 | 6304 ft | 195 kts | 128° |
| 2026-05-06 11:54 | 60.53181 | 78.05162 | 6643 ft | 197 kts | 128° |
| 2026-05-06 11:55 | 60.52382 | 78.07450 | 6973 ft | 199 kts | 128° |
| 2026-05-06 11:55 | 60.51583 | 78.09726 | 7294 ft | 201 kts | 128° |
| 2026-05-06 11:55 | 60.50770 | 78.12049 | 7611 ft | 203 kts | 128° |
| 2026-05-06 11:55 | 60.49946 | 78.14398 | 7912 ft | 205 kts | 128° |
| 2026-05-06 11:56 | 60.49112 | 78.16771 | 8220 ft | 207 kts | 128° |
| 2026-05-06 11:56 | 60.48275 | 78.19164 | 8512 ft | 208 kts | 128° |
| 2026-05-06 11:56 | 60.47431 | 78.21568 | 8805 ft | 210 kts | 128° |
| 2026-05-06 11:56 | 60.46578 | 78.23993 | 9080 ft | 212 kts | 128° |
| 2026-05-06 11:57 | 60.45731 | 78.26396 | 9361 ft | 213 kts | 128° |
| 2026-05-06 11:57 | 60.44868 | 78.28849 | 9644 ft | 214 kts | 128° |
| 2026-05-06 11:57 | 60.44009 | 78.31289 | 9915 ft | 215 kts | 128° |
| 2026-05-06 11:57 | 60.43132 | 78.33772 | 10195 ft | 216 kts | 128° |
| 2026-05-06 11:58 | 60.42249 | 78.36241 | 10484 ft | 216 kts | 129° |
| 2026-05-06 11:58 | 60.41340 | 78.38628 | 10759 ft | 217 kts | 131° |
| 2026-05-06 11:58 | 60.40378 | 78.41002 | 11020 ft | 218 kts | 133° |
| 2026-05-06 11:58 | 60.39390 | 78.43358 | 11289 ft | 219 kts | 133° |
| 2026-05-06 11:59 | 60.38402 | 78.45717 | 11556 ft | 220 kts | 133° |
| 2026-05-06 11:59 | 60.37413 | 78.48095 | 11813 ft | 221 kts | 132° |
| 2026-05-06 11:59 | 60.36432 | 78.50453 | 12077 ft | 222 kts | 132° |
| 2026-05-06 11:59 | 60.35436 | 78.52844 | 12345 ft | 222 kts | 132° |
| 2026-05-06 12:00 | 60.34434 | 78.55237 | 12606 ft | 223 kts | 132° |
| 2026-05-06 12:00 | 60.33428 | 78.57644 | 12838 ft | 225 kts | 132° |
| 2026-05-06 12:00 | 60.32415 | 78.60065 | 13099 ft | 225 kts | 132° |
| 2026-05-06 12:00 | 60.31418 | 78.62451 | 13343 ft | 226 kts | 132° |
| 2026-05-06 12:01 | 60.30400 | 78.64880 | 13585 ft | 226 kts | 132° |
| 2026-05-06 12:01 | 60.29379 | 78.67307 | 13799 ft | 228 kts | 132° |
| 2026-05-06 12:01 | 60.28346 | 78.69755 | 14037 ft | 229 kts | 132° |
| 2026-05-06 12:01 | 60.27310 | 78.72216 | 14280 ft | 230 kts | 132° |
| 2026-05-06 12:02 | 60.26288 | 78.74652 | 14486 ft | 230 kts | 132° |
| 2026-05-06 12:02 | 60.25244 | 78.77124 | 14719 ft | 231 kts | 132° |
| 2026-05-06 12:02 | 60.24200 | 78.79598 | 14936 ft | 232 kts | 132° |
| 2026-05-06 12:02 | 60.23153 | 78.82077 | 15139 ft | 233 kts | 132° |
| 2026-05-06 12:03 | 60.22098 | 78.84570 | 15327 ft | 234 kts | 132° |
| 2026-05-06 12:03 | 60.21038 | 78.87075 | 15525 ft | 235 kts | 132° |
| 2026-05-06 12:03 | 60.19973 | 78.89591 | 15720 ft | 236 kts | 132° |
| 2026-05-06 12:03 | 60.18919 | 78.92070 | 15905 ft | 236 kts | 132° |
| 2026-05-06 12:04 | 60.17846 | 78.94598 | 16086 ft | 237 kts | 132° |
| 2026-05-06 12:04 | 60.16772 | 78.97123 | 16260 ft | 238 kts | 132° |
| 2026-05-06 12:04 | 60.15694 | 78.99658 | 16436 ft | 239 kts | 132° |
| 2026-05-06 12:04 | 60.14605 | 79.02205 | 16630 ft | 240 kts | 132° |
| 2026-05-06 12:05 | 60.13528 | 79.04723 | 16818 ft | 241 kts | 132° |
| 2026-05-06 12:05 | 60.12432 | 79.07292 | 17006 ft | 241 kts | 132° |
| 2026-05-06 12:05 | 60.11334 | 79.09859 | 17200 ft | 241 kts | 132° |
| 2026-05-06 12:05 | 60.10253 | 79.12385 | 17370 ft | 242 kts | 132° |
| 2026-05-06 12:06 | 60.09153 | 79.14954 | 17500 ft | 243 kts | 132° |
| 2026-05-06 12:06 | 60.08045 | 79.17528 | 17642 ft | 244 kts | 132° |
| 2026-05-06 12:06 | 60.06945 | 79.20087 | 17796 ft | 244 kts | 132° |
| 2026-05-06 12:06 | 60.05833 | 79.22674 | 17934 ft | 245 kts | 132° |
| 2026-05-06 12:07 | 60.04720 | 79.25261 | 18070 ft | 245 kts | 132° |
| 2026-05-06 12:07 | 60.03601 | 79.27857 | 18219 ft | 245 kts | 132° |
| 2026-05-06 12:07 | 60.02483 | 79.30447 | 18360 ft | 245 kts | 132° |
| 2026-05-06 12:07 | 60.01382 | 79.32996 | 18486 ft | 246 kts | 132° |
| 2026-05-06 12:08 | 60.00265 | 79.35582 | 18614 ft | 246 kts | 132° |
| 2026-05-06 12:08 | 59.99137 | 79.38178 | 18740 ft | 248 kts | 132° |
| 2026-05-06 12:08 | 59.97989 | 79.40802 | 18794 ft | 252 kts | 132° |
| 2026-05-06 12:08 | 59.96813 | 79.43465 | 18817 ft | 257 kts | 132° |
| 2026-05-06 12:09 | 59.95618 | 79.46174 | 18832 ft | 262 kts | 132° |
| 2026-05-06 12:09 | 59.94410 | 79.48920 | 18835 ft | 265 kts | 132° |
| 2026-05-06 12:09 | 59.93187 | 79.51699 | 18842 ft | 269 kts | 132° |
| 2026-05-06 12:09 | 59.91949 | 79.54529 | 18844 ft | 271 kts | 131° |
| 2026-05-06 12:10 | 59.90720 | 79.57338 | 18842 ft | 274 kts | 131° |
| 2026-05-06 12:10 | 59.89460 | 79.60219 | 18846 ft | 276 kts | 131° |
| 2026-05-06 12:10 | 59.88193 | 79.63111 | 18837 ft | 277 kts | 132° |
| 2026-05-06 12:10 | 59.86923 | 79.66010 | 18839 ft | 278 kts | 131° |
| 2026-05-06 12:11 | 59.85656 | 79.68895 | 18841 ft | 279 kts | 132° |
| 2026-05-06 12:11 | 59.84368 | 79.71822 | 18841 ft | 280 kts | 132° |
| 2026-05-06 12:11 | 59.83082 | 79.74743 | 18839 ft | 281 kts | 132° |
| 2026-05-06 12:11 | 59.81793 | 79.77668 | 18839 ft | 281 kts | 132° |
| 2026-05-06 12:12 | 59.80494 | 79.80608 | 18838 ft | 282 kts | 132° |
| 2026-05-06 12:12 | 59.79200 | 79.83543 | 18837 ft | 283 kts | 132° |
| 2026-05-06 12:12 | 59.77917 | 79.86441 | 18834 ft | 283 kts | 132° |
| 2026-05-06 12:12 | 59.76612 | 79.89385 | 18838 ft | 283 kts | 132° |
| 2026-05-06 12:13 | 59.75307 | 79.92327 | 18837 ft | 284 kts | 132° |
| 2026-05-06 12:13 | 59.74003 | 79.95267 | 18839 ft | 284 kts | 132° |
| 2026-05-06 12:13 | 59.72710 | 79.98176 | 18838 ft | 284 kts | 132° |
| 2026-05-06 12:13 | 59.71396 | 80.01124 | 18841 ft | 284 kts | 132° |
| 2026-05-06 12:14 | 59.70088 | 80.04059 | 18844 ft | 284 kts | 132° |
| 2026-05-06 12:14 | 59.68779 | 80.06991 | 18841 ft | 284 kts | 132° |
| 2026-05-06 12:14 | 59.67466 | 80.09923 | 18841 ft | 284 kts | 132° |
| 2026-05-06 12:14 | 59.66177 | 80.12807 | 18842 ft | 284 kts | 132° |
| 2026-05-06 12:15 | 59.64867 | 80.15729 | 18843 ft | 283 kts | 132° |
| 2026-05-06 12:15 | 59.63550 | 80.18663 | 18840 ft | 283 kts | 132° |
| 2026-05-06 12:15 | 59.62254 | 80.21547 | 18843 ft | 283 kts | 132° |
| 2026-05-06 12:15 | 59.60942 | 80.24471 | 18840 ft | 283 kts | 132° |
| 2026-05-06 12:16 | 59.59632 | 80.27381 | 18837 ft | 283 kts | 132° |
| 2026-05-06 12:16 | 59.58318 | 80.30288 | 18837 ft | 283 kts | 132° |
| 2026-05-06 12:16 | 59.57027 | 80.33147 | 18840 ft | 282 kts | 132° |
| 2026-05-06 12:16 | 59.55717 | 80.36046 | 18839 ft | 282 kts | 132° |
| 2026-05-06 12:17 | 59.54409 | 80.38938 | 18841 ft | 281 kts | 132° |
| 2026-05-06 12:17 | 59.53105 | 80.41814 | 18846 ft | 281 kts | 132° |
| 2026-05-06 12:17 | 59.51795 | 80.44700 | 18844 ft | 281 kts | 132° |
| 2026-05-06 12:17 | 59.50508 | 80.47535 | 18842 ft | 281 kts | 132° |
| 2026-05-06 12:18 | 59.49201 | 80.50406 | 18843 ft | 281 kts | 132° |
| 2026-05-06 12:18 | 59.47892 | 80.53277 | 18841 ft | 281 kts | 132° |
| 2026-05-06 12:18 | 59.46590 | 80.56139 | 18842 ft | 280 kts | 132° |
| 2026-05-06 12:18 | 59.45283 | 80.58997 | 18840 ft | 280 kts | 133° |
| 2026-05-06 12:19 | 59.43998 | 80.61811 | 18840 ft | 280 kts | 132° |
| 2026-05-06 12:19 | 59.42696 | 80.64657 | 18844 ft | 280 kts | 132° |
| 2026-05-06 12:19 | 59.41387 | 80.67507 | 18837 ft | 279 kts | 133° |
| 2026-05-06 12:19 | 59.40081 | 80.70344 | 18841 ft | 279 kts | 133° |
| 2026-05-06 12:20 | 59.38777 | 80.73168 | 18846 ft | 279 kts | 132° |
| 2026-05-06 12:20 | 59.37486 | 80.76008 | 18839 ft | 278 kts | 132° |
| 2026-05-06 12:20 | 59.36205 | 80.78796 | 18840 ft | 278 kts | 133° |
| 2026-05-06 12:20 | 59.34903 | 80.81616 | 18843 ft | 279 kts | 133° |
| 2026-05-06 12:21 | 59.33595 | 80.84445 | 18845 ft | 279 kts | 133° |
| 2026-05-06 12:21 | 59.32297 | 80.87259 | 18842 ft | 278 kts | 133° |
| 2026-05-06 12:21 | 59.31034 | 80.89991 | 18845 ft | 278 kts | 133° |
| 2026-05-06 12:21 | 59.29733 | 80.92806 | 18841 ft | 277 kts | 133° |
| 2026-05-06 12:22 | 59.28438 | 80.95599 | 18842 ft | 277 kts | 133° |
| 2026-05-06 12:22 | 59.27139 | 80.98393 | 18841 ft | 277 kts | 133° |
| 2026-05-06 12:22 | 59.25842 | 81.01188 | 18842 ft | 277 kts | 133° |
| 2026-05-06 12:22 | 59.24546 | 81.03973 | 18839 ft | 277 kts | 133° |
| 2026-05-06 12:23 | 59.23260 | 81.06731 | 18843 ft | 277 kts | 133° |
| 2026-05-06 12:23 | 59.21960 | 81.09521 | 18843 ft | 276 kts | 133° |
| 2026-05-06 12:23 | 59.20680 | 81.12262 | 18840 ft | 276 kts | 133° |
| 2026-05-06 12:23 | 59.19382 | 81.15037 | 18842 ft | 276 kts | 133° |
| 2026-05-06 12:24 | 59.18086 | 81.17805 | 18843 ft | 276 kts | 133° |
| 2026-05-06 12:24 | 59.16787 | 81.20577 | 18840 ft | 276 kts | 133° |
| 2026-05-06 12:24 | 59.15502 | 81.23322 | 18840 ft | 276 kts | 133° |
| 2026-05-06 12:24 | 59.14204 | 81.26091 | 18847 ft | 275 kts | 133° |
| 2026-05-06 12:25 | 59.12912 | 81.28838 | 18848 ft | 276 kts | 133° |
| 2026-05-06 12:25 | 59.11610 | 81.31594 | 18849 ft | 276 kts | 133° |
| 2026-05-06 12:25 | 59.10309 | 81.34353 | 18849 ft | 276 kts | 133° |
| 2026-05-06 12:25 | 59.09022 | 81.37081 | 18850 ft | 276 kts | 133° |
| 2026-05-06 12:26 | 59.07725 | 81.39822 | 18851 ft | 276 kts | 133° |
| 2026-05-06 12:26 | 59.06416 | 81.42596 | 18851 ft | 276 kts | 133° |
| 2026-05-06 12:26 | 59.05114 | 81.45350 | 18851 ft | 276 kts | 133° |
| 2026-05-06 12:26 | 59.03828 | 81.48056 | 18850 ft | 276 kts | 133° |
| 2026-05-06 12:27 | 59.02524 | 81.50798 | 18850 ft | 276 kts | 133° |
| 2026-05-06 12:27 | 59.01218 | 81.53546 | 18851 ft | 276 kts | 133° |
| 2026-05-06 12:27 | 58.99913 | 81.56284 | 18852 ft | 276 kts | 133° |
| 2026-05-06 12:27 | 58.98608 | 81.59022 | 18851 ft | 276 kts | 133° |
| 2026-05-06 12:28 | 58.97306 | 81.61751 | 18850 ft | 275 kts | 133° |
| 2026-05-06 12:28 | 58.96020 | 81.64442 | 18851 ft | 274 kts | 133° |
| 2026-05-06 12:28 | 58.94717 | 81.67166 | 18850 ft | 274 kts | 134° |
| 2026-05-06 12:28 | 58.93421 | 81.69875 | 18851 ft | 274 kts | 134° |
| 2026-05-06 12:29 | 58.92120 | 81.72587 | 18851 ft | 274 kts | 134° |
| 2026-05-06 12:29 | 58.90820 | 81.75300 | 18851 ft | 274 kts | 134° |
| 2026-05-06 12:29 | 58.89536 | 81.77972 | 18851 ft | 274 kts | 134° |
| 2026-05-06 12:29 | 58.88231 | 81.80679 | 18852 ft | 274 kts | 134° |
| 2026-05-06 12:30 | 58.86926 | 81.83395 | 18851 ft | 274 kts | 134° |
| 2026-05-06 12:30 | 58.85626 | 81.86090 | 18851 ft | 274 kts | 134° |
| 2026-05-06 12:30 | 58.84339 | 81.88754 | 18851 ft | 274 kts | 134° |
| 2026-05-06 12:30 | 58.83039 | 81.91440 | 18851 ft | 274 kts | 134° |
| 2026-05-06 12:31 | 58.81737 | 81.94134 | 18850 ft | 274 kts | 134° |
| 2026-05-06 12:31 | 58.80434 | 81.96821 | 18851 ft | 274 kts | 134° |
| 2026-05-06 12:31 | 58.79128 | 81.99512 | 18851 ft | 274 kts | 134° |
| 2026-05-06 12:31 | 58.77823 | 82.02200 | 18851 ft | 274 kts | 134° |
| 2026-05-06 12:32 | 58.76534 | 82.04855 | 18850 ft | 273 kts | 134° |
| 2026-05-06 12:32 | 58.75232 | 82.07526 | 18851 ft | 273 kts | 134° |
| 2026-05-06 12:32 | 58.73932 | 82.10190 | 18851 ft | 273 kts | 134° |
| 2026-05-06 12:32 | 58.72632 | 82.12855 | 18851 ft | 273 kts | 134° |
| 2026-05-06 12:33 | 58.71331 | 82.15520 | 18851 ft | 272 kts | 134° |
| 2026-05-06 12:33 | 58.70044 | 82.18149 | 18851 ft | 272 kts | 134° |
| 2026-05-06 12:33 | 58.68741 | 82.20809 | 18852 ft | 272 kts | 135° |
| 2026-05-06 12:33 | 58.67445 | 82.23452 | 18851 ft | 272 kts | 135° |
| 2026-05-06 12:34 | 58.66143 | 82.26102 | 18851 ft | 272 kts | 134° |
| 2026-05-06 12:34 | 58.64843 | 82.28762 | 18851 ft | 272 kts | 135° |
| 2026-05-06 12:34 | 58.63553 | 82.31384 | 18851 ft | 272 kts | 135° |
| 2026-05-06 12:34 | 58.62246 | 82.34030 | 18851 ft | 272 kts | 135° |
| 2026-05-06 12:35 | 58.60945 | 82.36673 | 18850 ft | 272 kts | 135° |
| 2026-05-06 12:35 | 58.59660 | 82.39277 | 18850 ft | 272 kts | 135° |
| 2026-05-06 12:35 | 58.58354 | 82.41917 | 18859 ft | 272 kts | 135° |
| 2026-05-06 12:35 | 58.57052 | 82.44543 | 18865 ft | 271 kts | 135° |
| 2026-05-06 12:36 | 58.55751 | 82.47167 | 18868 ft | 271 kts | 135° |
| 2026-05-06 12:36 | 58.54890 | 82.48903 | 18867 ft | 271 kts | 135° |
| 2026-05-06 12:36 | 58.53590 | 82.51528 | 18869 ft | 272 kts | 135° |
| 2026-05-06 12:36 | 58.52287 | 82.54153 | 18869 ft | 272 kts | 135° |
| 2026-05-06 12:37 | 58.50560 | 82.57619 | 18868 ft | 271 kts | 135° |
| 2026-05-06 12:37 | 58.49695 | 82.59354 | 18869 ft | 271 kts | 135° |
| 2026-05-06 12:37 | 58.48386 | 82.61977 | 18869 ft | 271 kts | 135° |
| 2026-05-06 12:37 | 58.47085 | 82.64583 | 18869 ft | 271 kts | 135° |
| 2026-05-06 12:38 | 58.45776 | 82.67201 | 18865 ft | 272 kts | 135° |
| 2026-05-06 12:38 | 58.44473 | 82.69809 | 18863 ft | 272 kts | 135° |
| 2026-05-06 12:38 | 58.43166 | 82.72423 | 18861 ft | 272 kts | 135° |
| 2026-05-06 12:38 | 58.41857 | 82.75031 | 18860 ft | 271 kts | 135° |
| 2026-05-06 12:39 | 58.40549 | 82.77634 | 18861 ft | 271 kts | 135° |
| 2026-05-06 12:39 | 58.39257 | 82.80204 | 18861 ft | 271 kts | 135° |
| 2026-05-06 12:39 | 58.37947 | 82.82807 | 18859 ft | 271 kts | 135° |
| 2026-05-06 12:39 | 58.36639 | 82.85408 | 18861 ft | 271 kts | 135° |
| 2026-05-06 12:40 | 58.35333 | 82.87998 | 18860 ft | 270 kts | 135° |
| 2026-05-06 12:40 | 58.34045 | 82.90550 | 18860 ft | 270 kts | 135° |
| 2026-05-06 12:40 | 58.32742 | 82.93126 | 18860 ft | 269 kts | 136° |
| 2026-05-06 12:40 | 58.31376 | 82.95563 | 18861 ft | 269 kts | 141° |
| 2026-05-06 12:41 | 58.29921 | 82.97830 | 18860 ft | 269 kts | 143° |
| 2026-05-06 12:41 | 58.28470 | 83.00010 | 18860 ft | 269 kts | 143° |
| 2026-05-06 12:41 | 58.26994 | 83.02232 | 18860 ft | 269 kts | 143° |
| 2026-05-06 12:41 | 58.25548 | 83.04468 | 18860 ft | 268 kts | 142° |
| 2026-05-06 12:42 | 58.24103 | 83.06724 | 18860 ft | 268 kts | 142° |
| 2026-05-06 12:42 | 58.22677 | 83.08957 | 18860 ft | 268 kts | 142° |
| 2026-05-06 12:42 | 58.21235 | 83.11213 | 18862 ft | 268 kts | 142° |
| 2026-05-06 12:42 | 58.19790 | 83.13470 | 18860 ft | 268 kts | 142° |
| 2026-05-06 12:43 | 58.18363 | 83.15695 | 18859 ft | 268 kts | 142° |
| 2026-05-06 12:43 | 58.16921 | 83.17942 | 18859 ft | 268 kts | 142° |
| 2026-05-06 12:43 | 58.15479 | 83.20190 | 18860 ft | 268 kts | 142° |
| 2026-05-06 12:43 | 58.14039 | 83.22433 | 18866 ft | 267 kts | 142° |
| 2026-05-06 12:44 | 58.12614 | 83.24645 | 18868 ft | 267 kts | 142° |
| 2026-05-06 12:44 | 58.11170 | 83.26893 | 18868 ft | 267 kts | 142° |
| 2026-05-06 12:44 | 58.09726 | 83.29131 | 18868 ft | 267 kts | 142° |
| 2026-05-06 12:44 | 58.08296 | 83.31346 | 18868 ft | 267 kts | 142° |
| 2026-05-06 12:45 | 58.06866 | 83.33559 | 18869 ft | 267 kts | 142° |
| 2026-05-06 12:45 | 58.05421 | 83.35796 | 18869 ft | 267 kts | 142° |
| 2026-05-06 12:45 | 58.02558 | 83.40211 | 18869 ft | 267 kts | 142° |
| 2026-05-06 12:46 | 58.01111 | 83.42443 | 18870 ft | 266 kts | 142° |
| 2026-05-06 12:46 | 57.99685 | 83.44638 | 18869 ft | 267 kts | 142° |
| 2026-05-06 12:46 | 57.98246 | 83.46862 | 18869 ft | 266 kts | 143° |
| 2026-05-06 12:46 | 57.96814 | 83.49093 | 18870 ft | 266 kts | 143° |
| 2026-05-06 12:47 | 57.95400 | 83.51294 | 18869 ft | 266 kts | 143° |
| 2026-05-06 12:47 | 57.93960 | 83.53513 | 18869 ft | 266 kts | 143° |
| 2026-05-06 12:47 | 57.92535 | 83.55689 | 18869 ft | 265 kts | 143° |
| 2026-05-06 12:47 | 57.91094 | 83.57883 | 18869 ft | 265 kts | 143° |
| 2026-05-06 12:48 | 57.89680 | 83.60034 | 18870 ft | 265 kts | 143° |
| 2026-05-06 12:48 | 57.88247 | 83.62216 | 18869 ft | 265 kts | 143° |
| 2026-05-06 12:48 | 57.86819 | 83.64401 | 18869 ft | 264 kts | 143° |
| 2026-05-06 12:48 | 57.85387 | 83.66590 | 18869 ft | 264 kts | 143° |
| 2026-05-06 12:49 | 57.83950 | 83.68778 | 18870 ft | 265 kts | 143° |
| 2026-05-06 12:49 | 57.82539 | 83.70923 | 18869 ft | 265 kts | 143° |
| 2026-05-06 12:49 | 57.81103 | 83.73096 | 18868 ft | 265 kts | 143° |
| 2026-05-06 12:49 | 57.79668 | 83.75273 | 18868 ft | 265 kts | 143° |
| 2026-05-06 12:50 | 57.78234 | 83.77446 | 18868 ft | 265 kts | 143° |
| 2026-05-06 12:50 | 57.76795 | 83.79624 | 18868 ft | 264 kts | 143° |
| 2026-05-06 12:50 | 57.75380 | 83.81761 | 18870 ft | 264 kts | 143° |
| 2026-05-06 12:50 | 57.73950 | 83.83923 | 18869 ft | 264 kts | 143° |
| 2026-05-06 12:51 | 57.72515 | 83.86089 | 18869 ft | 264 kts | 143° |
| 2026-05-06 12:51 | 57.71082 | 83.88253 | 18869 ft | 264 kts | 143° |
| 2026-05-06 12:51 | 57.69647 | 83.90415 | 18869 ft | 264 kts | 143° |
| 2026-05-06 12:51 | 57.68232 | 83.92541 | 18869 ft | 264 kts | 143° |
| 2026-05-06 12:52 | 57.66798 | 83.94693 | 18870 ft | 264 kts | 143° |
| 2026-05-06 12:52 | 57.65359 | 83.96851 | 18870 ft | 264 kts | 143° |
| 2026-05-06 12:52 | 57.63924 | 83.99003 | 18869 ft | 265 kts | 143° |
| 2026-05-06 12:52 | 57.62486 | 84.01158 | 18869 ft | 265 kts | 143° |
| 2026-05-06 12:53 | 57.61047 | 84.03312 | 18869 ft | 264 kts | 143° |
| 2026-05-06 12:53 | 57.59628 | 84.05434 | 18870 ft | 265 kts | 143° |
| 2026-05-06 12:53 | 57.58189 | 84.07582 | 18870 ft | 265 kts | 144° |
| 2026-05-06 12:53 | 57.56743 | 84.09737 | 18869 ft | 265 kts | 144° |
| 2026-05-06 12:54 | 57.55302 | 84.11885 | 18869 ft | 265 kts | 144° |
| 2026-05-06 12:54 | 57.53859 | 84.14032 | 18871 ft | 265 kts | 144° |
| 2026-05-06 12:54 | 57.52434 | 84.16153 | 18873 ft | 265 kts | 144° |
| 2026-05-06 12:54 | 57.50991 | 84.18297 | 18876 ft | 265 kts | 144° |
| 2026-05-06 12:55 | 57.49548 | 84.20434 | 18878 ft | 265 kts | 144° |
| 2026-05-06 12:55 | 57.48125 | 84.22545 | 18878 ft | 265 kts | 144° |
| 2026-05-06 12:55 | 57.46682 | 84.24682 | 18878 ft | 265 kts | 144° |
| 2026-05-06 12:55 | 57.45238 | 84.26817 | 18880 ft | 265 kts | 144° |
| 2026-05-06 12:56 | 57.43793 | 84.28950 | 18879 ft | 265 kts | 145° |
| 2026-05-06 12:56 | 57.42346 | 84.31087 | 18878 ft | 265 kts | 145° |
| 2026-05-06 12:56 | 57.40901 | 84.33217 | 18878 ft | 265 kts | 145° |
| 2026-05-06 12:56 | 57.39472 | 84.35324 | 18879 ft | 265 kts | 145° |
| 2026-05-06 12:57 | 57.38028 | 84.37446 | 18879 ft | 265 kts | 145° |
| 2026-05-06 12:57 | 57.36580 | 84.39576 | 18880 ft | 265 kts | 146° |
| 2026-05-06 12:57 | 57.35127 | 84.41706 | 18879 ft | 266 kts | 145° |
| 2026-05-06 12:57 | 57.33674 | 84.43840 | 18879 ft | 266 kts | 146° |
| 2026-05-06 12:58 | 57.32217 | 84.45973 | 18879 ft | 266 kts | 146° |
| 2026-05-06 12:58 | 57.30781 | 84.48076 | 18879 ft | 267 kts | 146° |
| 2026-05-06 12:58 | 57.29321 | 84.50208 | 18878 ft | 267 kts | 146° |
| 2026-05-06 12:58 | 57.27859 | 84.52344 | 18878 ft | 267 kts | 146° |
| 2026-05-06 12:59 | 57.26400 | 84.54470 | 18878 ft | 267 kts | 146° |
| 2026-05-06 12:59 | 57.24960 | 84.56573 | 18878 ft | 267 kts | 146° |
| 2026-05-06 12:59 | 57.23499 | 84.58700 | 18878 ft | 267 kts | 146° |
| 2026-05-06 12:59 | 57.22036 | 84.60828 | 18878 ft | 267 kts | 147° |
| 2026-05-06 13:00 | 57.20573 | 84.62950 | 18880 ft | 267 kts | 147° |
| 2026-05-06 13:00 | 57.19128 | 84.65048 | 18880 ft | 267 kts | 147° |
| 2026-05-06 13:00 | 57.17667 | 84.67164 | 18879 ft | 267 kts | 147° |
| 2026-05-06 13:00 | 57.16201 | 84.69292 | 18879 ft | 267 kts | 147° |
| 2026-05-06 13:01 | 57.14734 | 84.71415 | 18879 ft | 268 kts | 147° |
| 2026-05-06 13:01 | 57.13266 | 84.73529 | 18881 ft | 269 kts | 147° |
| 2026-05-06 13:01 | 57.11794 | 84.75595 | 18879 ft | 268 kts | 148° |
| 2026-05-06 13:01 | 57.10293 | 84.77649 | 18878 ft | 268 kts | 149° |
| 2026-05-06 13:02 | 57.08794 | 84.79695 | 18876 ft | 267 kts | 149° |
| 2026-05-06 13:02 | 57.07300 | 84.81730 | 18878 ft | 267 kts | 149° |
| 2026-05-06 13:02 | 57.05803 | 84.83765 | 18879 ft | 267 kts | 149° |
| 2026-05-06 13:02 | 57.04321 | 84.85775 | 18878 ft | 269 kts | 149° |
| 2026-05-06 13:03 | 57.02825 | 84.87809 | 18877 ft | 267 kts | 149° |
| 2026-05-06 13:03 | 57.01327 | 84.89837 | 18879 ft | 267 kts | 149° |
| 2026-05-06 13:03 | 56.99829 | 84.91860 | 18880 ft | 267 kts | 149° |
| 2026-05-06 13:03 | 56.98322 | 84.93891 | 18878 ft | 269 kts | 149° |
| 2026-05-06 13:04 | 56.96816 | 84.95933 | 18879 ft | 269 kts | 149° |
| 2026-05-06 13:04 | 56.95307 | 84.97963 | 18879 ft | 268 kts | 150° |
| 2026-05-06 13:04 | 56.93807 | 84.99944 | 18878 ft | 268 kts | 150° |
| 2026-05-06 13:04 | 56.92294 | 85.01962 | 18879 ft | 269 kts | 149° |
| 2026-05-06 13:05 | 56.90781 | 85.03998 | 18874 ft | 268 kts | 150° |
| 2026-05-06 13:05 | 56.89268 | 85.06030 | 18878 ft | 269 kts | 150° |
| 2026-05-06 13:05 | 56.87760 | 85.08070 | 18879 ft | 269 kts | 149° |
| 2026-05-06 13:05 | 56.86275 | 85.10070 | 18877 ft | 269 kts | 150° |
| 2026-05-06 13:06 | 56.84767 | 85.12091 | 18878 ft | 269 kts | 150° |
| 2026-05-06 13:06 | 56.83250 | 85.14111 | 18880 ft | 270 kts | 150° |
| 2026-05-06 13:06 | 56.81735 | 85.16146 | 18880 ft | 268 kts | 150° |
| 2026-05-06 13:06 | 56.80243 | 85.18140 | 18880 ft | 268 kts | 150° |
| 2026-05-06 13:07 | 56.78737 | 85.20151 | 18877 ft | 268 kts | 150° |
| 2026-05-06 13:07 | 56.77226 | 85.22156 | 18879 ft | 268 kts | 150° |
| 2026-05-06 13:07 | 56.75710 | 85.24166 | 18885 ft | 269 kts | 150° |
| 2026-05-06 13:07 | 56.74198 | 85.26172 | 18887 ft | 269 kts | 150° |
| 2026-05-06 13:08 | 56.72700 | 85.28167 | 18885 ft | 269 kts | 150° |
| 2026-05-06 13:08 | 56.71180 | 85.30186 | 18886 ft | 269 kts | 150° |
| 2026-05-06 13:08 | 56.69669 | 85.32189 | 18887 ft | 269 kts | 150° |
| 2026-05-06 13:08 | 56.68166 | 85.34246 | 18886 ft | 271 kts | 144° |
| 2026-05-06 13:09 | 56.67145 | 85.37152 | 18890 ft | 286 kts | 111° |
| 2026-05-06 13:09 | 56.67017 | 85.40800 | 18887 ft | 294 kts | 80° |
| 2026-05-06 13:09 | 56.67839 | 85.44174 | 18892 ft | 293 kts | 50° |
| 2026-05-06 13:09 | 56.69382 | 85.46449 | 18891 ft | 281 kts | 19° |
| 2026-05-06 13:10 | 56.71240 | 85.47098 | 18889 ft | 267 kts | 348° |
| 2026-05-06 13:10 | 56.72935 | 85.46155 | 18888 ft | 254 kts | 328° |
| 2026-05-06 13:10 | 56.74499 | 85.44644 | 18886 ft | 252 kts | 322° |
| 2026-05-06 13:10 | 56.75945 | 85.42899 | 18887 ft | 250 kts | 316° |
| 2026-05-06 13:11 | 56.77257 | 85.40831 | 18888 ft | 247 kts | 306° |
| 2026-05-06 13:11 | 56.78037 | 85.38181 | 18896 ft | 233 kts | 277° |
| 2026-05-06 13:11 | 56.78195 | 85.35247 | 18887 ft | 231 kts | 269° |
| 2026-05-06 13:11 | 56.78172 | 85.32338 | 18886 ft | 231 kts | 264° |
| 2026-05-06 13:12 | 56.77988 | 85.29416 | 18885 ft | 231 kts | 257° |
| 2026-05-06 13:12 | 56.77275 | 85.26849 | 18896 ft | 232 kts | 225° |
| 2026-05-06 13:12 | 56.75814 | 85.25623 | 18893 ft | 244 kts | 191° |
| 2026-05-06 13:12 | 56.74108 | 85.26222 | 18890 ft | 262 kts | 158° |
| 2026-05-06 13:13 | 56.72625 | 85.28218 | 18883 ft | 267 kts | 146° |
| 2026-05-06 13:13 | 56.71216 | 85.30446 | 18883 ft | 268 kts | 145° |
| 2026-05-06 13:13 | 56.69788 | 85.32630 | 18883 ft | 265 kts | 150° |
| 2026-05-06 13:13 | 56.68294 | 85.34571 | 18884 ft | 268 kts | 141° |
| 2026-05-06 13:14 | 56.67350 | 85.37512 | 18892 ft | 283 kts | 109° |
| 2026-05-06 13:14 | 56.67309 | 85.41114 | 18890 ft | 291 kts | 77° |
| 2026-05-06 13:14 | 56.68206 | 85.44386 | 18888 ft | 290 kts | 46° |
| 2026-05-06 13:14 | 56.69800 | 85.46486 | 18889 ft | 281 kts | 15° |
| 2026-05-06 13:15 | 56.71673 | 85.46927 | 18889 ft | 266 kts | 344° |
| 2026-05-06 13:15 | 56.73360 | 85.45840 | 18887 ft | 254 kts | 326° |
| 2026-05-06 13:15 | 56.74895 | 85.44270 | 18887 ft | 252 kts | 320° |
| 2026-05-06 13:15 | 56.76304 | 85.42451 | 18888 ft | 250 kts | 314° |
| 2026-05-06 13:16 | 56.77534 | 85.40261 | 18888 ft | 244 kts | 300° |
| 2026-05-06 13:16 | 56.78093 | 85.37468 | 18893 ft | 232 kts | 274° |
| 2026-05-06 13:16 | 56.78197 | 85.34543 | 18884 ft | 231 kts | 268° |
| 2026-05-06 13:16 | 56.78144 | 85.31609 | 18886 ft | 231 kts | 263° |
| 2026-05-06 13:17 | 56.77898 | 85.28702 | 18883 ft | 230 kts | 252° |
| 2026-05-06 13:17 | 56.76969 | 85.26380 | 18896 ft | 234 kts | 217° |
| 2026-05-06 13:17 | 56.75397 | 85.25578 | 18892 ft | 249 kts | 183° |
| 2026-05-06 13:17 | 56.73721 | 85.26633 | 18889 ft | 265 kts | 152° |
| 2026-05-06 13:18 | 56.72276 | 85.28749 | 18881 ft | 267 kts | 146° |
| 2026-05-06 13:18 | 56.70866 | 85.30993 | 18882 ft | 268 kts | 146° |
| 2026-05-06 13:18 | 56.69437 | 85.33077 | 18885 ft | 263 kts | 153° |
| 2026-05-06 13:18 | 56.68008 | 85.35201 | 18891 ft | 273 kts | 132° |
| 2026-05-06 13:19 | 56.67285 | 85.38455 | 18891 ft | 286 kts | 99° |
| 2026-05-06 13:19 | 56.67512 | 85.42014 | 18888 ft | 291 kts | 69° |
| 2026-05-06 13:19 | 56.68635 | 85.45036 | 18889 ft | 288 kts | 38° |
| 2026-05-06 13:19 | 56.70364 | 85.46711 | 18890 ft | 277 kts | 7° |
| 2026-05-06 13:20 | 56.72204 | 85.46654 | 18889 ft | 261 kts | 336° |
| 2026-05-06 13:20 | 56.73838 | 85.45350 | 18886 ft | 253 kts | 324° |
| 2026-05-06 13:20 | 56.75331 | 85.43725 | 18885 ft | 251 kts | 319° |
| 2026-05-06 13:20 | 56.76707 | 85.41823 | 18888 ft | 248 kts | 311° |
| 2026-05-06 13:21 | 56.77806 | 85.39448 | 18890 ft | 239 kts | 289° |
| 2026-05-06 13:21 | 56.78147 | 85.36572 | 18889 ft | 231 kts | 271° |
| 2026-05-06 13:21 | 56.78198 | 85.33659 | 18884 ft | 231 kts | 266° |
| 2026-05-06 13:21 | 56.78096 | 85.30709 | 18884 ft | 231 kts | 261° |
| 2026-05-06 13:22 | 56.77723 | 85.27913 | 18889 ft | 230 kts | 241° |
| 2026-05-06 13:22 | 56.76546 | 85.25972 | 18897 ft | 237 kts | 206° |
| 2026-05-06 13:22 | 56.74869 | 85.25727 | 18893 ft | 254 kts | 173° |
| 2026-05-06 13:22 | 56.73271 | 85.27272 | 18886 ft | 265 kts | 148° |
| 2026-05-06 13:23 | 56.71859 | 85.29426 | 18881 ft | 268 kts | 146° |
| 2026-05-06 13:23 | 56.70446 | 85.31654 | 18884 ft | 268 kts | 147° |
| 2026-05-06 13:23 | 56.68970 | 85.33658 | 18887 ft | 263 kts | 152° |
| 2026-05-06 13:23 | 56.67724 | 85.36199 | 18892 ft | 278 kts | 121° |
| 2026-05-06 13:24 | 56.67315 | 85.39641 | 18889 ft | 289 kts | 89° |
| 2026-05-06 13:24 | 56.67575 | 85.42033 | 18888 ft | 291 kts | 69° |
| 2026-05-06 13:24 | 56.68703 | 85.45066 | 18887 ft | 288 kts | 38° |
| 2026-05-06 13:24 | 56.70427 | 85.46740 | 18890 ft | 277 kts | 7° |
| 2026-05-06 13:25 | 56.72268 | 85.46695 | 18890 ft | 261 kts | 336° |
| 2026-05-06 13:25 | 56.73897 | 85.45377 | 18886 ft | 253 kts | 324° |
| 2026-05-06 13:25 | 56.75380 | 85.43731 | 18885 ft | 251 kts | 318° |
| 2026-05-06 13:25 | 56.76755 | 85.41780 | 18888 ft | 248 kts | 311° |
| 2026-05-06 13:26 | 56.77825 | 85.39378 | 18891 ft | 238 kts | 288° |
| 2026-05-06 13:26 | 56.78148 | 85.36492 | 18888 ft | 231 kts | 271° |
| 2026-05-06 13:26 | 56.78196 | 85.33593 | 18884 ft | 231 kts | 266° |
| 2026-05-06 13:26 | 56.78093 | 85.30659 | 18884 ft | 231 kts | 261° |
| 2026-05-06 13:27 | 56.77701 | 85.27840 | 18889 ft | 230 kts | 240° |
| 2026-05-06 13:27 | 56.76517 | 85.25964 | 18897 ft | 237 kts | 206° |
| 2026-05-06 13:27 | 56.74840 | 85.25764 | 18893 ft | 254 kts | 172° |
| 2026-05-06 13:27 | 56.73252 | 85.27333 | 18886 ft | 265 kts | 148° |
| 2026-05-06 13:28 | 56.71825 | 85.29505 | 18881 ft | 267 kts | 146° |
| 2026-05-06 13:28 | 56.70419 | 85.31693 | 18883 ft | 269 kts | 147° |
| 2026-05-06 13:28 | 56.68925 | 85.33683 | 18887 ft | 263 kts | 152° |
| 2026-05-06 13:28 | 56.67679 | 85.36212 | 18892 ft | 278 kts | 120° |
| 2026-05-06 13:29 | 56.67284 | 85.39706 | 18889 ft | 289 kts | 89° |
| 2026-05-06 13:29 | 56.67842 | 85.43159 | 18888 ft | 291 kts | 58° |
| 2026-05-06 13:29 | 56.69222 | 85.45784 | 18887 ft | 285 kts | 27° |
| 2026-05-06 13:29 | 56.71055 | 85.46877 | 18889 ft | 272 kts | 356° |
| 2026-05-06 13:30 | 56.72842 | 85.46246 | 18889 ft | 256 kts | 329° |
| 2026-05-06 13:30 | 56.74404 | 85.44798 | 18886 ft | 253 kts | 322° |
| 2026-05-06 13:30 | 56.75875 | 85.43050 | 18886 ft | 250 kts | 316° |
| 2026-05-06 13:30 | 56.77190 | 85.40999 | 18887 ft | 246 kts | 307° |
| 2026-05-06 13:31 | 56.78001 | 85.38413 | 18897 ft | 233 kts | 278° |
| 2026-05-06 13:31 | 56.78182 | 85.35503 | 18885 ft | 231 kts | 269° |
| 2026-05-06 13:31 | 56.78178 | 85.32575 | 18884 ft | 230 kts | 264° |
| 2026-05-06 13:31 | 56.78017 | 85.29666 | 18884 ft | 231 kts | 258° |
| 2026-05-06 13:32 | 56.77375 | 85.27034 | 18899 ft | 233 kts | 228° |
| 2026-05-06 13:32 | 56.75932 | 85.25654 | 18894 ft | 244 kts | 194° |
| 2026-05-06 13:32 | 56.74242 | 85.26086 | 18892 ft | 260 kts | 161° |
| 2026-05-06 13:32 | 56.72743 | 85.28014 | 18882 ft | 266 kts | 147° |
| 2026-05-06 13:33 | 56.71336 | 85.30227 | 18880 ft | 268 kts | 145° |
| 2026-05-06 13:33 | 56.69910 | 85.32426 | 18882 ft | 266 kts | 149° |
| 2026-05-06 13:33 | 56.68429 | 85.34444 | 18887 ft | 271 kts | 141° |
| 2026-05-06 13:33 | 56.67481 | 85.37427 | 18892 ft | 285 kts | 108° |
| 2026-05-06 13:34 | 56.67441 | 85.41047 | 18889 ft | 292 kts | 77° |
| 2026-05-06 13:34 | 56.68340 | 85.44339 | 18888 ft | 290 kts | 46° |
| 2026-05-06 13:34 | 56.69917 | 85.46441 | 18888 ft | 282 kts | 16° |
| 2026-05-06 13:34 | 56.71795 | 85.46924 | 18890 ft | 267 kts | 345° |
| 2026-05-06 13:35 | 56.73481 | 85.45829 | 18886 ft | 252 kts | 326° |
| 2026-05-06 13:35 | 56.74981 | 85.44245 | 18886 ft | 252 kts | 320° |
| 2026-05-06 13:35 | 56.76396 | 85.42382 | 18887 ft | 248 kts | 313° |
| 2026-05-06 13:35 | 56.77590 | 85.40143 | 18888 ft | 242 kts | 297° |
| 2026-05-06 13:36 | 56.78093 | 85.37325 | 18891 ft | 231 kts | 273° |
| 2026-05-06 13:36 | 56.78196 | 85.34400 | 18885 ft | 232 kts | 267° |
| 2026-05-06 13:36 | 56.78133 | 85.31500 | 18886 ft | 232 kts | 263° |
| 2026-05-06 13:36 | 56.77883 | 85.28600 | 18884 ft | 230 kts | 251° |
| 2026-05-06 13:37 | 56.76924 | 85.26294 | 18897 ft | 235 kts | 216° |
| 2026-05-06 13:37 | 56.75322 | 85.25537 | 18892 ft | 249 kts | 182° |
| 2026-05-06 13:37 | 56.73670 | 85.26625 | 18888 ft | 265 kts | 151° |
| 2026-05-06 13:37 | 56.72230 | 85.28754 | 18881 ft | 267 kts | 144° |
| 2026-05-06 13:38 | 56.70835 | 85.30993 | 18882 ft | 268 kts | 145° |
| 2026-05-06 13:38 | 56.69395 | 85.33110 | 18884 ft | 261 kts | 152° |
| 2026-05-06 13:38 | 56.68035 | 85.35318 | 18892 ft | 271 kts | 129° |
| 2026-05-06 13:38 | 56.67428 | 85.38592 | 18892 ft | 284 kts | 96° |
| 2026-05-06 13:39 | 56.67769 | 85.42114 | 18889 ft | 289 kts | 65° |
| 2026-05-06 13:39 | 56.68982 | 85.44979 | 18887 ft | 285 kts | 34° |
| 2026-05-06 13:39 | 56.70754 | 85.46431 | 18889 ft | 274 kts | 2° |
| 2026-05-06 13:39 | 56.72565 | 85.46138 | 18891 ft | 257 kts | 333° |
| 2026-05-06 13:40 | 56.74184 | 85.44796 | 18888 ft | 253 kts | 324° |
| 2026-05-06 13:40 | 56.75674 | 85.43161 | 18885 ft | 252 kts | 319° |
| 2026-05-06 13:40 | 56.77044 | 85.41208 | 18887 ft | 247 kts | 309° |
| 2026-05-06 13:40 | 56.77986 | 85.38686 | 18894 ft | 235 kts | 281° |
| 2026-05-06 13:41 | 56.78205 | 85.35780 | 18885 ft | 231 kts | 269° |
| 2026-05-06 13:41 | 56.78206 | 85.32851 | 18883 ft | 231 kts | 264° |
| 2026-05-06 13:41 | 56.78051 | 85.29969 | 18883 ft | 231 kts | 259° |
| 2026-05-06 13:41 | 56.77488 | 85.27277 | 18895 ft | 230 kts | 231° |
| 2026-05-06 13:42 | 56.76112 | 85.25755 | 18895 ft | 241 kts | 197° |
| 2026-05-06 13:42 | 56.74421 | 85.26040 | 18892 ft | 259 kts | 163° |
| 2026-05-06 13:42 | 56.72891 | 85.27896 | 18883 ft | 265 kts | 147° |
| 2026-05-06 13:42 | 56.71474 | 85.30077 | 18882 ft | 266 kts | 146° |
| 2026-05-06 13:43 | 56.70051 | 85.32251 | 18881 ft | 266 kts | 148° |
| 2026-05-06 13:43 | 56.68548 | 85.34210 | 18883 ft | 268 kts | 145° |
| 2026-05-06 13:43 | 56.67503 | 85.37077 | 18892 ft | 284 kts | 112° |
| 2026-05-06 13:43 | 56.67359 | 85.40689 | 18890 ft | 292 kts | 81° |
| 2026-05-06 13:44 | 56.68164 | 85.44049 | 18888 ft | 291 kts | 50° |
| 2026-05-06 13:44 | 56.69705 | 85.46327 | 18889 ft | 283 kts | 19° |
| 2026-05-06 13:44 | 56.71554 | 85.46985 | 18890 ft | 268 kts | 349° |
| 2026-05-06 13:44 | 56.73271 | 85.46031 | 18888 ft | 254 kts | 326° |
| 2026-05-06 13:45 | 56.74798 | 85.44476 | 18885 ft | 248 kts | 320° |
| 2026-05-06 13:45 | 56.77431 | 85.40545 | 18888 ft | 242 kts | 302° |
| 2026-05-06 13:45 | 56.78053 | 85.37804 | 18893 ft | 230 kts | 275° |
| 2026-05-06 13:46 | 56.78184 | 85.34924 | 18885 ft | 229 kts | 268° |
| 2026-05-06 13:46 | 56.78156 | 85.31999 | 18886 ft | 230 kts | 264° |
| 2026-05-06 13:46 | 56.77961 | 85.29126 | 18884 ft | 229 kts | 256° |
| 2026-05-06 13:46 | 56.77164 | 85.26658 | 18897 ft | 232 kts | 221° |
| 2026-05-06 13:47 | 56.75646 | 85.25613 | 18893 ft | 246 kts | 187° |
| 2026-05-06 13:47 | 56.73950 | 85.26420 | 18889 ft | 263 kts | 155° |
| 2026-05-06 13:47 | 56.72495 | 85.28448 | 18881 ft | 266 kts | 146° |
| 2026-05-06 13:47 | 56.71096 | 85.30682 | 18881 ft | 267 kts | 145° |
| 2026-05-06 13:48 | 56.69662 | 85.32807 | 18882 ft | 264 kts | 152° |
| 2026-05-06 13:48 | 56.68164 | 85.34713 | 18888 ft | 270 kts | 139° |
| 2026-05-06 13:48 | 56.67237 | 85.37798 | 18893 ft | 284 kts | 107° |
| 2026-05-06 13:48 | 56.67255 | 85.41373 | 18890 ft | 293 kts | 76° |
| 2026-05-06 13:49 | 56.68216 | 85.44639 | 18888 ft | 292 kts | 45° |
| 2026-05-06 13:49 | 56.69836 | 85.46670 | 18888 ft | 282 kts | 14° |
| 2026-05-06 13:49 | 56.71728 | 85.47046 | 18890 ft | 267 kts | 343° |
| 2026-05-06 13:49 | 56.73400 | 85.45910 | 18887 ft | 255 kts | 325° |
| 2026-05-06 13:50 | 56.74934 | 85.44306 | 18885 ft | 253 kts | 320° |
| 2026-05-06 13:50 | 56.76347 | 85.42424 | 18886 ft | 249 kts | 313° |
| 2026-05-06 13:50 | 56.77557 | 85.40217 | 18887 ft | 243 kts | 299° |
| 2026-05-06 13:50 | 56.78092 | 85.37410 | 18892 ft | 231 kts | 273° |
| 2026-05-06 13:51 | 56.78194 | 85.34518 | 18884 ft | 231 kts | 268° |
| 2026-05-06 13:51 | 56.78141 | 85.31579 | 18886 ft | 231 kts | 263° |
| 2026-05-06 13:51 | 56.77896 | 85.28688 | 18884 ft | 230 kts | 251° |
| 2026-05-06 13:51 | 56.76975 | 85.26405 | 18897 ft | 234 kts | 217° |
| 2026-05-06 13:52 | 56.75379 | 85.25612 | 18893 ft | 248 kts | 182° |
| 2026-05-06 13:52 | 56.73708 | 85.26700 | 18889 ft | 264 kts | 152° |
| 2026-05-06 13:52 | 56.72273 | 85.28792 | 18881 ft | 267 kts | 146° |
| 2026-05-06 13:52 | 56.70863 | 85.31016 | 18882 ft | 267 kts | 146° |
| 2026-05-06 13:53 | 56.69431 | 85.33092 | 18884 ft | 262 kts | 153° |
| 2026-05-06 13:53 | 56.68028 | 85.35255 | 18891 ft | 272 kts | 131° |
| 2026-05-06 13:53 | 56.67344 | 85.38540 | 18891 ft | 286 kts | 98° |
| 2026-05-06 13:53 | 56.67614 | 85.42082 | 18889 ft | 291 kts | 67° |
| 2026-05-06 13:54 | 56.68778 | 85.45044 | 18888 ft | 285 kts | 36° |
| 2026-05-06 13:54 | 56.70489 | 85.46604 | 18890 ft | 274 kts | 5° |
| 2026-05-06 13:54 | 56.72317 | 85.46421 | 18891 ft | 254 kts | 334° |
| 2026-05-06 13:54 | 56.73903 | 85.45160 | 18885 ft | 249 kts | 325° |
| 2026-05-06 13:55 | 56.75413 | 85.43551 | 18885 ft | 250 kts | 320° |
| 2026-05-06 13:55 | 56.76786 | 85.41680 | 18887 ft | 247 kts | 311° |
| 2026-05-06 13:55 | 56.77850 | 85.39277 | 18892 ft | 237 kts | 287° |
| 2026-05-06 13:55 | 56.78154 | 85.36421 | 18888 ft | 230 kts | 271° |
| 2026-05-06 13:56 | 56.78197 | 85.33501 | 18884 ft | 230 kts | 266° |
| 2026-05-06 13:56 | 56.78089 | 85.30595 | 18884 ft | 230 kts | 261° |
| 2026-05-06 13:56 | 56.77684 | 85.27791 | 18890 ft | 229 kts | 239° |
| 2026-05-06 13:56 | 56.76461 | 85.25932 | 18897 ft | 238 kts | 204° |
| 2026-05-06 13:57 | 56.74777 | 85.25812 | 18893 ft | 254 kts | 171° |
| 2026-05-06 13:57 | 56.73118 | 85.27380 | 18170 ft | 290 kts | 149° |
| 2026-05-06 13:57 | 56.71488 | 85.29799 | 17157 ft | 318 kts | 145° |
| 2026-05-06 13:57 | 56.69751 | 85.32451 | 16027 ft | 332 kts | 146° |
| 2026-05-06 13:58 | 56.68021 | 85.35077 | 15611 ft | 314 kts | 136° |
| 2026-05-06 13:58 | 56.67002 | 85.38639 | 15283 ft | 324 kts | 107° |
| 2026-05-06 13:58 | 56.66925 | 85.42712 | 15037 ft | 330 kts | 80° |
| 2026-05-06 13:58 | 56.67807 | 85.46551 | 14789 ft | 329 kts | 53° |
| 2026-05-06 13:59 | 56.69452 | 85.49309 | 14534 ft | 318 kts | 25° |
| 2026-05-06 13:59 | 56.71528 | 85.50483 | 14286 ft | 309 kts | 358° |
| 2026-05-06 13:59 | 56.73592 | 85.49902 | 14036 ft | 295 kts | 331° |
| 2026-05-06 13:59 | 56.75166 | 85.47764 | 13786 ft | 281 kts | 303° |
| 2026-05-06 14:00 | 56.75919 | 85.44600 | 13540 ft | 272 kts | 275° |
| 2026-05-06 14:00 | 56.75654 | 85.41220 | 13287 ft | 271 kts | 246° |
| 2026-05-06 14:00 | 56.74447 | 85.38595 | 13035 ft | 276 kts | 217° |
| 2026-05-06 14:00 | 56.72608 | 85.37450 | 12787 ft | 289 kts | 189° |
| 2026-05-06 14:01 | 56.70601 | 85.38128 | 12542 ft | 303 kts | 161° |
| 2026-05-06 14:01 | 56.68919 | 85.40517 | 12281 ft | 317 kts | 133° |
| 2026-05-06 14:01 | 56.67952 | 85.44100 | 12025 ft | 326 kts | 106° |
| 2026-05-06 14:01 | 56.67903 | 85.48216 | 11766 ft | 329 kts | 79° |
| 2026-05-06 14:02 | 56.68811 | 85.52024 | 11510 ft | 326 kts | 51° |
| 2026-05-06 14:02 | 56.70472 | 85.54714 | 11261 ft | 317 kts | 24° |
| 2026-05-06 14:02 | 56.72513 | 85.55801 | 11022 ft | 302 kts | 358° |
| 2026-05-06 14:02 | 56.74511 | 85.55128 | 10770 ft | 288 kts | 329° |
| 2026-05-06 14:03 | 56.76011 | 85.52886 | 10518 ft | 276 kts | 301° |
| 2026-05-06 14:03 | 56.76764 | 85.49749 | 10283 ft | 268 kts | 284° |
| 2026-05-06 14:03 | 56.77225 | 85.46431 | 10084 ft | 269 kts | 279° |
| 2026-05-06 14:03 | 56.77539 | 85.43110 | 9871 ft | 265 kts | 276° |
| 2026-05-06 14:04 | 56.77701 | 85.39824 | 9672 ft | 252 kts | 270° |
| 2026-05-06 14:04 | 56.77747 | 85.36698 | 9449 ft | 243 kts | 270° |
| 2026-05-06 14:04 | 56.77785 | 85.33691 | 9116 ft | 224 kts | 269° |
| 2026-05-06 14:04 | 56.77830 | 85.31038 | 8737 ft | 202 kts | 270° |
| 2026-05-06 14:05 | 56.77876 | 85.28560 | 8302 ft | 189 kts | 270° |
| 2026-05-06 14:05 | 56.77674 | 85.26178 | 7839 ft | 205 kts | 240° |
| 2026-05-06 14:05 | 56.76487 | 85.24421 | 7433 ft | 241 kts | 203° |
| 2026-05-06 14:05 | 56.74760 | 85.24274 | 7158 ft | 267 kts | 170° |
| 2026-05-06 14:06 | 56.73052 | 85.25812 | 6875 ft | 280 kts | 151° |
| 2026-05-06 14:06 | 56.71428 | 85.27657 | 6601 ft | 265 kts | 153° |
| 2026-05-06 14:06 | 56.69831 | 85.29180 | 6308 ft | 253 kts | 160° |
| 2026-05-06 14:06 | 56.68244 | 85.30301 | 6032 ft | 244 kts | 165° |
| 2026-05-06 14:07 | 56.66635 | 85.31216 | 5769 ft | 251 kts | 167° |
| 2026-05-06 14:07 | 56.65003 | 85.32112 | 5505 ft | 254 kts | 166° |
| 2026-05-06 14:07 | 56.63367 | 85.33023 | 5231 ft | 257 kts | 166° |
| 2026-05-06 14:07 | 56.61620 | 85.34022 | 4937 ft | 255 kts | 165° |
| 2026-05-06 14:08 | 56.59943 | 85.35011 | 4656 ft | 251 kts | 164° |
| 2026-05-06 14:08 | 56.58294 | 85.35992 | 4370 ft | 247 kts | 164° |
| 2026-05-06 14:08 | 56.56665 | 85.36955 | 4111 ft | 244 kts | 164° |
| 2026-05-06 14:08 | 56.55149 | 85.37846 | 3860 ft | 212 kts | 163° |
| 2026-05-06 14:09 | 56.53839 | 85.38555 | 3627 ft | 179 kts | 174° |
| 2026-05-06 14:09 | 56.52741 | 85.38069 | 3447 ft | 164 kts | 206° |
| 2026-05-06 14:09 | 56.51677 | 85.37049 | 3255 ft | 177 kts | 208° |
| 2026-05-06 14:09 | 56.50612 | 85.35845 | 3087 ft | 187 kts | 213° |
| 2026-05-06 14:10 | 56.49547 | 85.34455 | 2929 ft | 188 kts | 214° |
| 2026-05-06 14:10 | 56.48536 | 85.33164 | 2730 ft | 165 kts | 211° |
| 2026-05-06 14:10 | 56.47925 | 85.32470 | 2588 ft | 149 kts | 210° |
| 2026-05-06 14:10 | 56.46894 | 85.31298 | 2362 ft | 117 kts | 212° |
| 2026-05-06 14:11 | 56.46235 | 85.30497 | 2217 ft | 116 kts | 213° |
| 2026-05-06 14:11 | 56.45586 | 85.29672 | 2073 ft | 111 kts | 214° |
| 2026-05-06 14:11 | 56.45137 | 85.29155 | 1976 ft | 114 kts | 211° |
| 2026-05-06 14:11 | 56.44463 | 85.28397 | 1832 ft | 117 kts | 213° |
| 2026-05-06 14:12 | 56.43781 | 85.27576 | 1682 ft | 119 kts | 214° |
| 2026-05-06 14:12 | 56.43091 | 85.26728 | 1530 ft | 120 kts | 214° |
| 2026-05-06 14:12 | 56.42401 | 85.25890 | 1377 ft | 121 kts | 213° |
| 2026-05-06 14:12 | 56.41695 | 85.25051 | 1219 ft | 121 kts | 213° |
| 2026-05-06 14:13 | 56.40989 | 85.24223 | 1061 ft | 120 kts | 213° |
| 2026-05-06 14:13 | 56.40302 | 85.23414 | 909 ft | 117 kts | 213° |
| 2026-05-06 14:13 | 56.39619 | 85.22612 | 732 ft | 117 kts | 213° |
| 2026-05-06 14:13 | 56.38946 | 85.21800 | 595 ft | 114 kts | 213° |
| 2026-05-06 14:14 | 56.38327 | 85.21068 | 568 ft | 94 kts | 215° |
| 2026-05-06 14:14 | 56.38109 | 85.20789 | 567 ft | 12 kts | 241° |
| 2026-05-06 14:14 | 56.38124 | 85.20687 | 571 ft | 7 kts | 304° |
| 2026-05-06 14:14 | 56.38153 | 85.20606 | 565 ft | 10 kts | 302° |
| 2026-05-06 14:15 | 56.38203 | 85.20511 | 565 ft | 9 kts | 350° |
| 2026-05-06 14:15 | 56.38264 | 85.20574 | 565 ft | 15 kts | 34° |
| 2026-05-06 14:15 | 56.38341 | 85.20665 | 569 ft | 12 kts | 33° |
| 2026-05-06 14:15 | 56.38405 | 85.20739 | 570 ft | 10 kts | 33° |
| 2026-05-06 14:16 | 56.38458 | 85.20802 | 567 ft | 8 kts | 33° |
| 2026-05-06 14:16 | 56.38504 | 85.20857 | 565 ft | 8 kts | 33° |
| 2026-05-06 14:16 | 56.38547 | 85.20907 | 571 ft | 7 kts | 33° |
| 2026-05-06 14:16 | 56.38589 | 85.20957 | 565 ft | 8 kts | 34° |
| 2026-05-06 14:17 | 56.38635 | 85.21013 | 565 ft | 9 kts | 34° |
| 2026-05-06 14:17 | 56.38712 | 85.21105 | 565 ft | 12 kts | 33° |
| 2026-05-06 14:17 | 56.38777 | 85.21181 | 567 ft | 9 kts | 32° |
| 2026-05-06 14:17 | 56.38821 | 85.21159 | 565 ft | 6 kts | 309° |
| 2026-05-06 14:18 | 56.38839 | 85.21112 | 565 ft | 2 kts | 302° |
| 2026-05-06 14:18 | 56.38840 | 85.21110 | 565 ft | 0 kts | 302° |